Time;durP1;ratioP1;P1;durP2;ratioP2;P2;SDS_P1;SDS_P2;PMS_P1;PMS_P2;Temp;Humidity;BMP_temperature;BMP_pressure;BME280_temperature;BME280_humidity;BME280_pressure;Samples;Min_cycle;Max_cycle;Signal;HPM_P1;HPM_P2
2022/11/27 00:00:20;;;;;;;0.68;0.68;;;;;;;;;;5056115;28;20112;-84
2022/11/27 00:02:46;;;;;;;1.98;1.05;;;;;;;;;;5059013;28;20036;-86
2022/11/27 00:05:11;;;;;;;0.85;0.85;;;;;;;;;;5054170;28;20021;-83
2022/11/27 00:07:37;;;;;;;1.17;1.08;;;;;;;;;;5061395;28;20035;-85
2022/11/27 00:10:03;;;;;;;0.95;0.90;;;;;;;;;;5060608;28;20055;-85
2022/11/27 00:12:29;;;;;;;1.25;0.75;;;;;;;;;;5055747;28;20030;-85
2022/11/27 00:14:55;;;;;;;0.95;0.95;;;;;;;;;;5050327;28;20057;-83
2022/11/27 00:17:20;;;;;;;0.90;0.90;;;;;;;;;;5060002;28;20742;-82
2022/11/27 00:19:46;;;;;;;2.88;0.75;;;;;;;;;;5062989;28;20055;-87
2022/11/27 00:22:11;;;;;;;0.63;0.63;;;;;;;;;;5059601;28;20032;-83
2022/11/27 00:24:37;;;;;;;1.27;0.85;;;;;;;;;;5064351;28;20044;-85
2022/11/27 00:27:02;;;;;;;0.95;0.95;;;;;;;;;;5055607;28;20082;-84
2022/11/27 00:29:29;;;;;;;1.88;1.38;;;;;;;;;;5064352;28;20025;-85
2022/11/27 00:31:55;;;;;;;1.00;0.98;;;;;;;;;;5067059;28;20418;-85
2022/11/27 00:34:21;;;;;;;1.35;1.20;;;;;;;;;;5060432;28;20515;-85
2022/11/27 00:36:46;;;;;;;3.47;1.73;;;;;;;;;;5064496;28;20048;-86
2022/11/27 00:39:12;;;;;;;1.48;1.38;;;;;;;;;;5060960;28;20104;-87
2022/11/27 00:41:37;;;;;;;1.65;1.33;;;;;;;;;;5067531;28;20097;-84
2022/11/27 00:44:04;;;;;;;1.52;1.20;;;;;;;;;;5061614;28;20031;-84
2022/11/27 00:46:31;;;;;;;0.70;0.70;;;;;;;;;;5063910;28;20501;-84
2022/11/27 00:48:58;;;;;;;2.60;2.38;;;;;;;;;;5063634;28;20495;-86
2022/11/27 00:51:24;;;;;;;1.65;1.15;;;;;;;;;;5063846;28;20036;-86
2022/11/27 00:53:50;;;;;;;4.05;1.17;;;;;;;;;;5062446;28;20041;-83
2022/11/27 00:56:19;;;;;;;1.60;1.35;;;;;;;;;;5060137;28;20035;-85
2022/11/27 00:58:45;;;;;;;2.92;1.88;;;;;;;;;;5059705;28;20033;-84
2022/11/27 01:01:17;;;;;;;2.55;1.23;;;;;;;;;;5057736;28;20087;-85
2022/11/27 01:03:43;;;;;;;1.13;1.02;;;;;;;;;;5063630;28;20032;-83
2022/11/27 01:06:10;;;;;;;0.57;0.57;;;;;;;;;;5058360;28;20025;-86
2022/11/27 01:08:35;;;;;;;1.95;1.35;;;;;;;;;;5060058;28;20075;-83
2022/11/27 01:11:01;;;;;;;2.88;1.35;;;;;;;;;;5066036;28;20029;-83
2022/11/27 01:13:30;;;;;;;1.63;1.52;;;;;;;;;;5066006;28;20028;-87
2022/11/27 01:16:03;;;;;;;1.85;1.52;;;;;;;;;;5059444;28;20024;-86
2022/11/27 01:18:29;;;;;;;2.17;1.45;;;;;;;;;;5064611;28;20078;-86
2022/11/27 01:20:54;;;;;;;2.33;1.77;;;;;;;;;;5064579;28;20431;-85
2022/11/27 01:23:21;;;;;;;1.33;1.23;;;;;;;;;;5062838;28;20086;-87
2022/11/27 01:25:47;;;;;;;1.33;1.23;;;;;;;;;;5064070;28;20035;-84
2022/11/27 01:28:14;;;;;;;2.30;1.05;;;;;;;;;;5069040;28;20028;-81
2022/11/27 01:30:39;;;;;;;2.78;2.08;;;;;;;;;;5061642;28;20468;-85
2022/11/27 01:33:05;;;;;;;0.93;0.90;;;;;;;;;;5061481;28;20168;-82
2022/11/27 01:35:30;;;;;;;2.38;1.85;;;;;;;;;;5060629;28;20032;-81
2022/11/27 01:37:56;;;;;;;1.40;1.30;;;;;;;;;;5060992;28;20412;-86
2022/11/27 01:40:22;;;;;;;2.17;1.83;;;;;;;;;;5061050;28;20028;-87
2022/11/27 01:42:47;;;;;;;2.03;1.20;;;;;;;;;;5060865;28;20049;-85
2022/11/27 01:45:16;;;;;;;1.55;1.33;;;;;;;;;;5064588;28;20039;-86
2022/11/27 01:47:59;;;;;;;1.73;1.30;;;;;;;;;;5063812;28;20071;-88
2022/11/27 01:50:33;;;;;;;2.33;1.30;;;;;;;;;;5060496;28;20025;-84
2022/11/27 01:53:12;;;;;;;5.88;3.90;;;;;;;;;;5058942;28;20055;-83
2022/11/27 01:55:41;;;;;;;;;;;;;;;;;;5064422;28;20047;-87
2022/11/27 01:58:10;;;;;;;0.75;0.70;;;;;;;;;;5059056;28;19976;-88
2022/11/27 02:00:36;;;;;;;2.92;2.15;;;;;;;;;;5061660;28;20024;-83
2022/11/27 02:03:02;;;;;;;2.03;1.92;;;;;;;;;;5064333;28;20032;-88
2022/11/27 02:05:28;;;;;;;1.00;0.95;;;;;;;;;;5066057;28;20030;-83
2022/11/27 02:07:56;;;;;;;3.40;2.63;;;;;;;;;;5062439;28;20032;-84
2022/11/27 02:10:47;;;;;;;3.33;1.92;;;;;;;;;;5059036;28;20481;-86
2022/11/27 02:13:34;;;;;;;4.40;3.38;;;;;;;;;;5060560;28;20064;-86
2022/11/27 02:16:25;;;;;;;2.85;2.05;;;;;;;;;;5060346;28;20143;-85
2022/11/27 02:19:20;;;;;;;2.58;2.38;;;;;;;;;;5059435;28;20043;-85
2022/11/27 02:22:14;;;;;;;2.17;2.00;;;;;;;;;;5060721;28;20082;-83
2022/11/27 02:25:08;;;;;;;4.28;2.55;;;;;;;;;;5043981;28;20039;-85
2022/11/27 02:28:02;;;;;;;4.45;2.30;;;;;;;;;;5061073;28;20028;-85
2022/11/27 02:30:33;;;;;;;8.05;3.28;;;;;;;;;;5060813;28;20166;-84
2022/11/27 02:33:01;;;;;;;3.53;2.65;;;;;;;;;;5059060;28;20028;-85
2022/11/27 02:35:33;;;;;;;4.63;3.20;;;;;;;;;;5062411;28;20383;-86
2022/11/27 02:38:07;;;;;;;9.88;5.07;;;;;;;;;;5058476;28;20035;-88
2022/11/27 02:40:40;;;;;;;6.05;4.15;;;;;;;;;;5058849;28;20472;-83
2022/11/27 02:43:12;;;;;;;5.10;3.47;;;;;;;;;;5058313;28;20181;-83
2022/11/27 02:45:42;;;;;;;5.55;3.90;;;;;;;;;;5055994;28;20028;-89
2022/11/27 02:48:09;;;;;;;7.43;3.70;;;;;;;;;;5067737;28;20025;-85
2022/11/27 02:50:37;;;;;;;3.97;3.60;;;;;;;;;;5063541;28;20404;-87
2022/11/27 02:53:09;;;;;;;21.13;5.43;;;;;;;;;;5062309;28;20078;-85
2022/11/27 02:55:38;;;;;;;4.95;4.00;;;;;;;;;;5059946;28;20032;-89
2022/11/27 02:58:09;;;;;;;6.50;4.13;;;;;;;;;;5063270;28;20063;-85
2022/11/27 03:00:36;;;;;;;4.70;4.13;;;;;;;;;;5057376;28;20067;-88
2022/11/27 03:03:06;;;;;;;4.15;3.47;;;;;;;;;;5060683;28;20025;-85
2022/11/27 03:05:36;;;;;;;5.90;5.28;;;;;;;;;;5058438;28;20029;-86
2022/11/27 03:08:06;;;;;;;13.18;5.75;;;;;;;;;;5062202;28;20037;-86
2022/11/27 03:10:39;;;;;;;9.15;6.00;;;;;;;;;;5055325;28;20497;-84
2022/11/27 03:13:04;;;;;;;7.10;5.28;;;;;;;;;;5058177;28;20017;-83
2022/11/27 03:15:42;;;;;;;13.27;5.30;;;;;;;;;;5058469;28;20032;-86
2022/11/27 03:18:24;;;;;;;8.50;5.65;;;;;;;;;;5060659;28;20025;-86
2022/11/27 03:20:58;;;;;;;10.13;5.95;;;;;;;;;;5052038;28;20501;-87
2022/11/27 03:23:23;;;;;;;7.85;5.32;;;;;;;;;;5059929;28;20048;-84
2022/11/27 03:25:49;;;;;;;8.38;5.97;;;;;;;;;;5061666;28;20029;-85
2022/11/27 03:28:15;;;;;;;7.47;3.65;;;;;;;;;;5055593;28;20449;-86
2022/11/27 03:30:40;;;;;;;9.15;6.45;;;;;;;;;;5057521;28;20075;-84
2022/11/27 03:33:06;;;;;;;10.52;6.68;;;;;;;;;;5061819;28;20036;-83
2022/11/27 03:35:31;;;;;;;16.80;6.75;;;;;;;;;;5060405;28;20430;-86
2022/11/27 03:37:57;;;;;;;7.80;5.88;;;;;;;;;;5060563;28;20036;-82
2022/11/27 03:40:30;;;;;;;9.32;5.43;;;;;;;;;;5054718;28;20021;-82
2022/11/27 03:43:24;;;;;;;7.70;4.32;;;;;;;;;;5059735;28;20037;-82
2022/11/27 03:46:05;;;;;;;10.23;6.40;;;;;;;;;;5064434;28;20021;-84
2022/11/27 03:48:34;;;;;;;6.93;4.55;;;;;;;;;;5058952;28;20056;-86
2022/11/27 03:51:04;;;;;;;10.82;4.15;;;;;;;;;;5063084;28;20043;-89
2022/11/27 03:53:43;;;;;;;6.82;3.47;;;;;;;;;;5055293;28;20032;-85
2022/11/27 03:56:39;;;;;;;6.63;4.32;;;;;;;;;;5058046;28;20536;-86
2022/11/27 03:59:11;;;;;;;6.93;4.15;;;;;;;;;;5055587;28;20033;-82
2022/11/27 04:01:38;;;;;;;8.30;4.68;;;;;;;;;;5054312;28;20031;-87
2022/11/27 04:04:03;;;;;;;12.68;5.72;;;;;;;;;;5064077;28;20111;-84
2022/11/27 04:06:29;;;;;;;10.15;5.65;;;;;;;;;;5065811;28;20017;-84
2022/11/27 04:08:54;;;;;;;11.60;6.78;;;;;;;;;;5066497;28;20070;-83
2022/11/27 04:11:19;;;;;;;10.68;6.53;;;;;;;;;;5062906;28;20513;-82
2022/11/27 04:13:45;;;;;;;12.18;6.15;;;;;;;;;;5064879;28;20107;-85
2022/11/27 04:16:11;;;;;;;8.23;5.85;;;;;;;;;;5061112;28;20078;-82
2022/11/27 04:18:36;;;;;;;11.20;7.45;;;;;;;;;;5058385;28;20020;-82
2022/11/27 04:21:01;;;;;;;7.35;5.72;;;;;;;;;;5063188;28;20024;-84
2022/11/27 04:23:27;;;;;;;13.82;6.07;;;;;;;;;;5060768;28;20025;-83
2022/11/27 04:25:52;;;;;;;7.85;4.82;;;;;;;;;;5064691;28;20031;-85
2022/11/27 04:28:18;;;;;;;12.48;5.93;;;;;;;;;;5063645;28;20056;-84
2022/11/27 04:30:44;;;;;;;13.63;7.82;;;;;;;;;;5062683;28;20031;-86
2022/11/27 04:33:09;;;;;;;9.55;6.53;;;;;;;;;;5062872;28;20101;-84
2022/11/27 04:35:35;;;;;;;13.60;6.20;;;;;;;;;;5066376;28;20056;-83
2022/11/27 04:38:00;;;;;;;14.77;6.90;;;;;;;;;;5063842;28;20037;-84
2022/11/27 04:40:26;;;;;;;6.45;5.78;;;;;;;;;;5067423;28;20024;-85
2022/11/27 04:42:51;;;;;;;14.10;7.40;;;;;;;;;;5064049;28;20063;-83
2022/11/27 04:45:17;;;;;;;12.23;7.38;;;;;;;;;;5061714;28;20075;-85
2022/11/27 04:47:42;;;;;;;8.90;5.00;;;;;;;;;;5062001;28;20032;-84
2022/11/27 04:50:08;;;;;;;6.65;5.55;;;;;;;;;;5063119;28;20024;-83
2022/11/27 04:52:34;;;;;;;11.90;4.95;;;;;;;;;;5063683;28;20424;-84
2022/11/27 04:54:59;;;;;;;9.50;7.68;;;;;;;;;;5061459;28;20029;-85
2022/11/27 04:57:25;;;;;;;10.48;5.63;;;;;;;;;;5064404;28;20036;-83
2022/11/27 04:59:50;;;;;;;9.07;4.72;;;;;;;;;;5057843;28;20024;-88
2022/11/27 05:02:15;;;;;;;12.27;5.57;;;;;;;;;;5055467;28;20054;-83
2022/11/27 05:04:41;;;;;;;14.30;5.63;;;;;;;;;;5060705;28;20025;-88
2022/11/27 05:07:06;;;;;;;10.55;6.13;;;;;;;;;;5057066;28;20377;-86
2022/11/27 05:09:32;;;;;;;6.30;4.88;;;;;;;;;;5061787;28;20029;-87
2022/11/27 05:11:57;;;;;;;16.25;4.85;;;;;;;;;;5061265;28;20036;-85
2022/11/27 05:14:27;;;;;;;11.10;6.20;;;;;;;;;;5059419;28;20032;-84
2022/11/27 05:16:55;;;;;;;12.57;5.63;;;;;;;;;;5061752;28;20527;-88
2022/11/27 05:19:22;;;;;;;7.05;4.43;;;;;;;;;;5060200;28;20443;-86
2022/11/27 05:21:49;;;;;;;11.65;6.05;;;;;;;;;;5053968;28;20054;-84
2022/11/27 05:24:16;;;;;;;11.68;5.50;;;;;;;;;;5060390;28;20032;-85
2022/11/27 05:26:41;;;;;;;9.50;5.80;;;;;;;;;;5059632;28;20112;-82
2022/11/27 05:29:08;;;;;;;11.02;5.68;;;;;;;;;;5065521;28;20111;-82
2022/11/27 05:31:34;;;;;;;10.18;5.95;;;;;;;;;;5061875;28;20070;-82
2022/11/27 05:34:00;;;;;;;10.18;5.97;;;;;;;;;;5061203;28;20033;-83
2022/11/27 05:36:26;;;;;;;11.43;6.68;;;;;;;;;;5058474;28;20036;-83
2022/11/27 05:38:51;;;;;;;9.70;6.25;;;;;;;;;;5064564;28;20033;-83
2022/11/27 05:41:17;;;;;;;14.40;6.30;;;;;;;;;;5063816;28;20091;-84
2022/11/27 05:43:42;;;;;;;9.35;4.78;;;;;;;;;;5065895;28;20028;-83
2022/11/27 05:46:10;;;;;;;7.90;6.13;;;;;;;;;;5063117;28;20025;-84
2022/11/27 05:48:36;;;;;;;9.52;6.10;;;;;;;;;;5060887;28;20380;-83
2022/11/27 05:51:02;;;;;;;14.65;6.25;;;;;;;;;;5064173;28;20024;-82
2022/11/27 05:53:28;;;;;;;10.40;6.82;;;;;;;;;;5066982;28;20028;-84
2022/11/27 05:55:53;;;;;;;10.75;6.20;;;;;;;;;;5059080;28;20381;-82
2022/11/27 05:58:19;;;;;;;10.20;5.80;;;;;;;;;;5060171;28;20016;-83
2022/11/27 06:00:45;;;;;;;5.53;4.43;;;;;;;;;;5060687;28;20383;-82
2022/11/27 06:03:10;;;;;;;9.38;6.30;;;;;;;;;;5060424;28;20541;-83
2022/11/27 06:05:40;;;;;;;13.32;5.15;;;;;;;;;;5059194;28;20031;-83
2022/11/27 06:08:05;;;;;;;12.30;5.32;;;;;;;;;;5060745;28;20041;-82
2022/11/27 06:10:30;;;;;;;8.65;5.57;;;;;;;;;;5058495;28;20047;-84
2022/11/27 06:12:56;;;;;;;9.20;5.00;;;;;;;;;;5062156;28;20086;-83
2022/11/27 06:15:21;;;;;;;12.10;5.43;;;;;;;;;;5057740;28;20086;-84
2022/11/27 06:17:50;;;;;;;10.50;6.68;;;;;;;;;;5062003;28;20032;-83
2022/11/27 06:20:15;;;;;;;12.30;7.80;;;;;;;;;;5060657;28;20037;-85
2022/11/27 06:22:41;;;;;;;14.10;7.32;;;;;;;;;;5060953;28;20028;-83
2022/11/27 06:25:07;;;;;;;11.15;5.38;;;;;;;;;;5058476;28;20055;-83
2022/11/27 06:27:33;;;;;;;10.40;5.40;;;;;;;;;;5058285;28;20111;-83
2022/11/27 06:29:59;;;;;;;12.48;7.10;;;;;;;;;;5061661;28;20033;-83
2022/11/27 06:32:24;;;;;;;13.02;6.78;;;;;;;;;;5060932;28;20037;-83
2022/11/27 06:34:50;;;;;;;15.43;7.57;;;;;;;;;;5063774;28;20051;-83
2022/11/27 06:37:15;;;;;;;14.70;7.38;;;;;;;;;;5056855;28;20037;-82
2022/11/27 06:39:40;;;;;;;15.40;7.45;;;;;;;;;;5058273;28;20484;-83
2022/11/27 06:42:06;;;;;;;13.20;7.35;;;;;;;;;;5054221;28;20041;-83
2022/11/27 06:44:35;;;;;;;13.02;8.05;;;;;;;;;;5057871;28;20028;-84
2022/11/27 06:47:01;;;;;;;7.97;5.83;;;;;;;;;;5060412;28;20028;-83
2022/11/27 06:49:26;;;;;;;8.80;5.38;;;;;;;;;;5058615;28;20305;-82
2022/11/27 06:51:51;;;;;;;15.38;6.75;;;;;;;;;;5055270;28;20416;-83
2022/11/27 06:54:17;;;;;;;11.93;5.75;;;;;;;;;;5057251;28;20377;-83
2022/11/27 06:56:42;;;;;;;13.93;5.68;;;;;;;;;;5055990;28;20028;-84
2022/11/27 06:59:11;;;;;;;12.52;6.72;;;;;;;;;;5059491;28;20077;-83
2022/11/27 07:01:37;;;;;;;13.95;8.98;;;;;;;;;;5061200;28;20124;-83
2022/11/27 07:04:02;;;;;;;9.90;5.07;;;;;;;;;;5060841;28;20040;-81
2022/11/27 07:06:28;;;;;;;11.82;6.03;;;;;;;;;;5060290;28;20368;-83
2022/11/27 07:08:54;;;;;;;19.50;8.25;;;;;;;;;;5064283;28;20028;-82
2022/11/27 07:11:21;;;;;;;20.20;9.30;;;;;;;;;;5052293;28;20029;-81
2022/11/27 07:13:48;;;;;;;24.05;9.77;;;;;;;;;;5063892;28;20380;-82
2022/11/27 07:16:14;;;;;;;10.40;7.05;;;;;;;;;;5055892;28;20387;-83
2022/11/27 07:18:42;;;;;;;15.40;8.60;;;;;;;;;;5062711;28;20074;-82
2022/11/27 07:21:08;;;;;;;10.52;6.82;;;;;;;;;;5057373;28;20032;-82
2022/11/27 07:23:34;;;;;;;9.45;7.18;;;;;;;;;;5058093;28;20025;-83
2022/11/27 07:26:09;;;;;;;13.38;7.80;;;;;;;;;;5058527;28;20039;-83
2022/11/27 07:28:34;;;;;;;18.38;8.43;;;;;;;;;;5051345;28;20025;-83
2022/11/27 07:31:00;;;;;;;12.95;8.13;;;;;;;;;;5059487;28;20035;-83
2022/11/27 07:33:26;;;;;;;15.02;8.98;;;;;;;;;;5057494;28;20059;-83
2022/11/27 07:36:00;;;;;;;14.18;6.85;;;;;;;;;;5054987;28;20029;-80
2022/11/27 07:38:25;;;;;;;12.63;7.68;;;;;;;;;;5061912;28;20036;-84
2022/11/27 07:40:51;;;;;;;13.93;9.15;;;;;;;;;;5058400;28;20048;-84
2022/11/27 07:43:16;;;;;;;19.80;7.97;;;;;;;;;;5068763;28;20031;-85
2022/11/27 07:45:41;;;;;;;11.70;6.65;;;;;;;;;;5063584;28;20033;-82
2022/11/27 07:48:07;;;;;;;12.43;5.95;;;;;;;;;;5061560;28;20036;-85
2022/11/27 07:50:32;;;;;;;14.68;6.80;;;;;;;;;;5059566;28;20055;-81
2022/11/27 07:52:58;;;;;;;10.70;6.85;;;;;;;;;;5061028;28;20091;-85
2022/11/27 07:55:23;;;;;;;11.23;7.93;;;;;;;;;;5054331;28;20499;-85
2022/11/27 07:57:48;;;;;;;15.10;8.13;;;;;;;;;;5057441;28;20031;-82
2022/11/27 08:00:14;;;;;;;15.50;8.32;;;;;;;;;;5068937;28;20036;-84
2022/11/27 08:02:40;;;;;;;16.65;6.53;;;;;;;;;;5061300;28;20510;-84
2022/11/27 08:05:06;;;;;;;12.80;8.02;;;;;;;;;;5060742;28;20025;-84
2022/11/27 08:07:31;;;;;;;18.15;8.80;;;;;;;;;;5056824;28;20020;-82
2022/11/27 08:09:57;;;;;;;17.30;10.68;;;;;;;;;;5057961;28;20048;-83
2022/11/27 08:12:23;;;;;;;15.93;9.45;;;;;;;;;;5060949;28;20474;-84
2022/11/27 08:14:49;;;;;;;12.75;7.75;;;;;;;;;;5064606;28;20029;-83
2022/11/27 08:17:14;;;;;;;16.58;9.75;;;;;;;;;;5064781;28;20051;-81
2022/11/27 08:19:40;;;;;;;23.42;8.35;;;;;;;;;;5067594;28;20387;-81
2022/11/27 08:22:13;;;;;;;9.98;6.85;;;;;;;;;;5062837;28;20024;-83
2022/11/27 08:24:38;;;;;;;16.63;8.07;;;;;;;;;;5060305;28;20104;-82
2022/11/27 08:27:03;;;;;;;14.82;12.02;;;;;;;;;;5063205;28;20049;-82
2022/11/27 08:29:29;;;;;;;11.65;9.15;;;;;;;;;;5066258;28;20124;-82
2022/11/27 08:31:55;;;;;;;16.38;7.88;;;;;;;;;;5054971;28;20764;-82
2022/11/27 08:34:20;;;;;;;17.17;8.77;;;;;;;;;;5058979;28;20028;-83
2022/11/27 08:36:45;;;;;;;10.50;7.15;;;;;;;;;;5058700;28;20025;-82
2022/11/27 08:39:11;;;;;;;12.48;8.52;;;;;;;;;;5061598;28;20029;-82
2022/11/27 08:41:36;;;;;;;20.98;10.10;;;;;;;;;;5067488;28;20053;-80
2022/11/27 08:44:02;;;;;;;19.55;11.05;;;;;;;;;;5063260;28;20465;-80
2022/11/27 08:46:27;;;;;;;17.17;9.48;;;;;;;;;;5058503;28;20025;-80
2022/11/27 08:48:53;;;;;;;13.95;9.77;;;;;;;;;;5061138;28;20465;-81
2022/11/27 08:51:18;;;;;;;19.83;11.57;;;;;;;;;;5062207;28;20025;-81
2022/11/27 08:53:44;;;;;;;13.88;9.15;;;;;;;;;;5060279;28;20026;-81
2022/11/27 08:56:16;;;;;;;16.55;8.32;;;;;;;;;;5055334;28;20032;-80
2022/11/27 08:58:42;;;;;;;18.90;9.52;;;;;;;;;;5065889;28;20037;-81
2022/11/27 09:01:10;;;;;;;15.23;9.00;;;;;;;;;;5060187;28;20031;-82
2022/11/27 09:03:35;;;;;;;17.98;8.70;;;;;;;;;;5061508;28;20028;-82
2022/11/27 09:06:04;;;;;;;17.05;8.95;;;;;;;;;;5065260;28;20028;-81
2022/11/27 09:08:29;;;;;;;14.15;8.40;;;;;;;;;;5066985;28;20036;-82
2022/11/27 09:10:59;;;;;;;19.90;11.23;;;;;;;;;;5060822;28;20043;-83
2022/11/27 09:13:25;;;;;;;24.67;11.45;;;;;;;;;;5058198;28;20029;-81
2022/11/27 09:15:50;;;;;;;19.90;10.98;;;;;;;;;;5059954;28;20106;-81
2022/11/27 09:18:15;;;;;;;19.90;12.20;;;;;;;;;;5062017;28;20025;-81
2022/11/27 09:20:41;;;;;;;28.67;16.15;;;;;;;;;;5056283;28;20031;-81
2022/11/27 09:23:06;;;;;;;22.38;11.70;;;;;;;;;;5063031;28;20101;-81
2022/11/27 09:25:32;;;;;;;17.90;11.07;;;;;;;;;;5054775;28;20036;-82
2022/11/27 09:27:57;;;;;;;13.98;7.95;;;;;;;;;;5054564;28;20642;-82
2022/11/27 09:30:22;;;;;;;15.85;9.82;;;;;;;;;;5060461;28;20044;-81
2022/11/27 09:32:48;;;;;;;17.20;9.65;;;;;;;;;;5059222;28;20025;-82
2022/11/27 09:35:13;;;;;;;20.63;11.43;;;;;;;;;;5060619;28;20082;-82
2022/11/27 09:37:39;;;;;;;14.27;8.50;;;;;;;;;;5054280;28;20032;-84
2022/11/27 09:40:05;;;;;;;22.90;8.82;;;;;;;;;;5060631;28;20078;-83
2022/11/27 09:42:39;;;;;;;13.48;8.77;;;;;;;;;;5064280;28;20128;-81
2022/11/27 09:45:11;;;;;;;11.73;8.35;;;;;;;;;;5063793;28;20077;-83
2022/11/27 09:47:48;;;;;;;11.27;8.23;;;;;;;;;;5062997;28;20025;-82
2022/11/27 09:50:17;;;;;;;16.92;11.75;;;;;;;;;;5064963;28;20460;-80
2022/11/27 09:52:49;;;;;;;17.40;9.95;;;;;;;;;;5062614;28;20029;-85
2022/11/27 09:55:25;;;;;;;8.80;7.18;;;;;;;;;;5052459;28;20029;-84
2022/11/27 09:58:15;;;;;;;11.05;7.38;;;;;;;;;;5055627;28;20013;-82
2022/11/27 10:00:42;;;;;;;17.65;9.45;;;;;;;;;;5060116;28;20021;-83
2022/11/27 10:03:18;;;;;;;13.27;8.88;;;;;;;;;;5056908;28;20029;-82
2022/11/27 10:05:47;;;;;;;22.52;9.48;;;;;;;;;;5060267;28;20097;-83
2022/11/27 10:08:25;;;;;;;12.88;8.25;;;;;;;;;;5063069;28;20395;-81
2022/11/27 10:11:20;;;;;;;12.35;8.85;;;;;;;;;;5060997;28;20488;-85
2022/11/27 10:14:24;;;;;;;10.80;6.82;;;;;;;;;;5033199;28;20065;-81
2022/11/27 10:17:15;;;;;;;9.38;6.40;;;;;;;;;;5060910;28;20087;-79
2022/11/27 10:20:02;;;;;;;8.95;5.72;;;;;;;;;;5060501;28;20021;-84
2022/11/27 10:22:59;;;;;;;11.98;6.32;;;;;;;;;;5062325;28;20376;-82
2022/11/27 10:25:45;;;;;;;18.25;9.25;;;;;;;;;;5058099;28;20016;-81
2022/11/27 10:28:17;;;;;;;9.75;6.13;;;;;;;;;;5062942;28;20494;-82
2022/11/27 10:31:02;;;;;;;13.80;8.32;;;;;;;;;;5054823;28;20039;-80
2022/11/27 10:33:45;;;;;;;14.23;6.43;;;;;;;;;;5043646;28;20044;-84
2022/11/27 10:36:17;;;;;;;10.35;5.15;;;;;;;;;;5053727;28;20033;-81
2022/11/27 10:38:45;;;;;;;9.48;5.90;;;;;;;;;;5056859;28;20021;-84
2022/11/27 10:41:21;;;;;;;7.05;5.55;;;;;;;;;;5057492;28;20496;-85
2022/11/27 10:43:48;;;;;;;13.13;7.97;;;;;;;;;;5052542;28;20144;-82
2022/11/27 10:46:23;;;;;;;9.50;5.57;;;;;;;;;;5058661;28;20045;-85
2022/11/27 10:48:48;;;;;;;8.10;5.28;;;;;;;;;;5057669;28;20525;-83
2022/11/27 10:51:21;;;;;;;6.45;4.45;;;;;;;;;;5052028;28;20126;-84
2022/11/27 10:53:51;;;;;;;7.07;5.32;;;;;;;;;;5055913;28;20036;-85
2022/11/27 10:56:35;;;;;;;7.25;5.40;;;;;;;;;;5054723;28;20036;-82
2022/11/27 10:59:08;;;;;;;11.63;8.05;;;;;;;;;;5055449;28;20476;-81
2022/11/27 11:01:46;;;;;;;10.63;6.15;;;;;;;;;;5060254;28;20032;-82
2022/11/27 11:04:14;;;;;;;12.98;7.68;;;;;;;;;;5057646;28;20067;-82
2022/11/27 11:06:44;;;;;;;13.18;7.35;;;;;;;;;;5064206;28;20021;-84
2022/11/27 11:09:26;;;;;;;9.55;5.10;;;;;;;;;;5056867;28;20036;-84
2022/11/27 11:11:52;;;;;;;7.72;5.28;;;;;;;;;;5059328;28;20380;-83
2022/11/27 11:14:25;;;;;;;8.07;6.03;;;;;;;;;;5055049;28;20024;-83
2022/11/27 11:16:52;;;;;;;11.32;5.68;;;;;;;;;;5058353;28;20465;-84
2022/11/27 11:19:30;;;;;;;13.20;7.03;;;;;;;;;;5051000;28;20504;-82
2022/11/27 11:21:55;;;;;;;11.80;8.10;;;;;;;;;;5055011;28;20424;-84
2022/11/27 11:24:27;;;;;;;10.68;7.47;;;;;;;;;;5048931;28;20037;-82
2022/11/27 11:27:02;;;;;;;7.07;4.97;;;;;;;;;;5052391;28;20040;-82
2022/11/27 11:29:34;;;;;;;7.95;4.60;;;;;;;;;;5055641;28;20097;-85
2022/11/27 11:32:11;;;;;;;8.02;4.22;;;;;;;;;;5050505;28;20033;-82
2022/11/27 11:34:46;;;;;;;7.28;5.38;;;;;;;;;;5051656;28;20469;-84
2022/11/27 11:37:27;;;;;;;9.43;5.97;;;;;;;;;;5047444;28;20021;-84
2022/11/27 11:39:58;;;;;;;6.68;4.72;;;;;;;;;;5060819;28;20025;-83
2022/11/27 11:42:27;;;;;;;5.70;4.40;;;;;;;;;;5054714;28;20471;-81
2022/11/27 11:45:15;;;;;;;12.30;5.00;;;;;;;;;;5059213;28;20033;-80
2022/11/27 11:47:49;;;;;;;10.32;5.22;;;;;;;;;;5053313;28;20467;-81
2022/11/27 11:50:44;;;;;;;10.70;5.40;;;;;;;;;;5051057;28;20107;-83
2022/11/27 11:53:21;;;;;;;11.65;5.93;;;;;;;;;;5051824;28;20064;-82
2022/11/27 11:56:10;;;;;;;10.45;6.38;;;;;;;;;;5045924;28;20033;-81
2022/11/27 11:58:59;;;;;;;9.10;4.90;;;;;;;;;;5048841;28;20044;-83
2022/11/27 12:01:43;;;;;;;7.90;3.83;;;;;;;;;;5048140;28;20033;-84
2022/11/27 12:04:23;;;;;;;6.35;5.13;;;;;;;;;;5059523;28;20544;-85
2022/11/27 12:07:33;;;;;;;8.70;4.90;;;;;;;;;;5061634;28;20028;-84
2022/11/27 12:10:18;;;;;;;8.50;5.20;;;;;;;;;;5027828;28;20092;-84
2022/11/27 12:12:55;;;;;;;7.75;4.75;;;;;;;;;;5054089;28;20459;-84
2022/11/27 12:15:24;;;;;;;14.35;6.05;;;;;;;;;;5051142;28;20107;-82
2022/11/27 12:17:56;;;;;;;8.80;4.93;;;;;;;;;;5048098;28;20024;-80
2022/11/27 12:20:33;;;;;;;13.57;6.57;;;;;;;;;;5046938;28;20427;-81
2022/11/27 12:23:41;;;;;;;8.82;5.07;;;;;;;;;;5057727;28;20028;-81
2022/11/27 12:26:33;;;;;;;28.33;14.40;;;;;;;;;;5064886;28;20108;-84
2022/11/27 12:29:37;;;;;;;10.70;7.38;;;;;;;;;;5062628;28;20036;-81
2022/11/27 12:32:29;;;;;;;6.88;5.55;;;;;;;;;;5065365;28;20107;-80
2022/11/27 12:35:09;;;;;;;7.43;5.65;;;;;;;;;;5060754;28;20040;-80
2022/11/27 12:37:46;;;;;;;5.70;4.57;;;;;;;;;;5063289;28;20112;-82
2022/11/27 12:40:15;;;;;;;9.05;6.35;;;;;;;;;;5060125;28;20504;-82
2022/11/27 12:43:12;;;;;;;8.88;4.93;;;;;;;;;;5064701;28;20044;-82
2022/11/27 12:46:25;;;;;;;8.00;5.45;;;;;;;;;;5061168;28;20048;-84
2022/11/27 12:48:55;;;;;;;5.47;4.22;;;;;;;;;;5050501;28;20043;-83
2022/11/27 12:51:30;;;;;;;9.27;5.43;;;;;;;;;;5058073;28;20036;-82
2022/11/27 12:54:17;;;;;;;16.42;8.43;;;;;;;;;;5061053;28;20056;-82
2022/11/27 12:56:50;;;;;;;21.35;10.32;;;;;;;;;;5057784;28;20112;-81
2022/11/27 12:59:30;;;;;;;11.13;6.50;;;;;;;;;;5061121;28;20099;-81
2022/11/27 13:02:07;;;;;;;10.25;5.28;;;;;;;;;;5065654;28;20115;-82
2022/11/27 13:04:43;;;;;;;12.30;7.60;;;;;;;;;;5056181;28;20024;-80
2022/11/27 13:07:21;;;;;;;5.68;4.50;;;;;;;;;;5055595;28;20047;-82
2022/11/27 13:09:54;;;;;;;8.82;5.65;;;;;;;;;;5054915;28;20479;-82
2022/11/27 13:12:27;;;;;;;10.48;6.47;;;;;;;;;;5054402;28;20473;-81
2022/11/27 13:15:00;;;;;;;6.05;4.65;;;;;;;;;;5054576;28;20057;-81
2022/11/27 13:17:35;;;;;;;11.57;5.57;;;;;;;;;;5052552;28;20025;-83
2022/11/27 13:20:04;;;;;;;7.97;5.30;;;;;;;;;;5050255;28;20458;-81
2022/11/27 13:22:34;;;;;;;6.55;4.47;;;;;;;;;;5057138;28;20029;-81
2022/11/27 13:25:02;;;;;;;9.23;5.30;;;;;;;;;;5063652;28;20024;-80
2022/11/27 13:27:31;;;;;;;7.25;4.70;;;;;;;;;;5059384;28;20634;-82
2022/11/27 13:30:05;;;;;;;9.98;5.80;;;;;;;;;;5059926;28;20025;-81
2022/11/27 13:32:35;;;;;;;6.97;5.03;;;;;;;;;;5063343;28;20538;-80
2022/11/27 13:35:17;;;;;;;3.22;2.92;;;;;;;;;;5057928;28;20078;-81
2022/11/27 13:37:44;;;;;;;6.78;3.80;;;;;;;;;;5054247;28;20357;-80
2022/11/27 13:40:20;;;;;;;6.45;3.65;;;;;;;;;;5061407;28;20029;-81
2022/11/27 13:42:53;;;;;;;6.82;4.15;;;;;;;;;;5050523;28;20049;-81
2022/11/27 13:45:27;;;;;;;6.78;3.85;;;;;;;;;;5057558;28;20025;-80
2022/11/27 13:47:55;;;;;;;5.22;3.28;;;;;;;;;;5055360;28;20078;-81
2022/11/27 13:50:22;;;;;;;3.22;1.70;;;;;;;;;;5056180;28;20017;-81
2022/11/27 13:53:06;;;;;;;2.15;1.77;;;;;;;;;;5048432;28;20198;-80
2022/11/27 13:55:37;;;;;;;2.15;1.70;;;;;;;;;;5051021;28;20086;-81
2022/11/27 13:58:04;;;;;;;2.08;1.45;;;;;;;;;;5055461;28;20510;-81
2022/11/27 14:00:38;;;;;;;1.95;1.63;;;;;;;;;;5052795;28;20083;-79
2022/11/27 14:03:05;;;;;;;3.65;2.30;;;;;;;;;;5055257;28;20039;-80
2022/11/27 14:05:43;;;;;;;5.43;2.17;;;;;;;;;;5063951;28;20021;-81
2022/11/27 14:08:16;;;;;;;6.65;3.67;;;;;;;;;;5055913;28;20055;-81
2022/11/27 14:10:49;;;;;;;5.90;3.85;;;;;;;;;;5063025;28;20485;-81
2022/11/27 14:13:16;;;;;;;4.53;2.88;;;;;;;;;;5061811;28;20116;-80
2022/11/27 14:15:41;;;;;;;3.30;1.95;;;;;;;;;;5060903;28;20029;-81
2022/11/27 14:18:13;;;;;;;6.82;5.13;;;;;;;;;;5062045;28;20090;-81
2022/11/27 14:21:04;;;;;;;2.33;1.70;;;;;;;;;;5059016;28;20512;-81
2022/11/27 14:23:33;;;;;;;31.63;18.83;;;;;;;;;;5053687;28;20141;-81
2022/11/27 14:26:13;;;;;;;9.13;6.15;;;;;;;;;;5057572;28;20023;-80
2022/11/27 14:28:42;;;;;;;5.03;3.78;;;;;;;;;;5062273;28;20021;-80
2022/11/27 14:31:27;;;;;;;3.17;1.98;;;;;;;;;;5054909;28;20036;-80
2022/11/27 14:33:53;;;;;;;3.03;2.38;;;;;;;;;;5052403;28;20085;-81
2022/11/27 14:36:23;;;;;;;5.15;2.83;;;;;;;;;;5058403;28;20112;-79
2022/11/27 14:38:49;;;;;;;4.13;2.83;;;;;;;;;;5058574;28;20021;-82
2022/11/27 14:41:17;;;;;;;3.13;2.33;;;;;;;;;;5052896;28;20037;-80
2022/11/27 14:43:43;;;;;;;3.20;2.00;;;;;;;;;;5056159;28;20107;-80
2022/11/27 14:46:27;;;;;;;4.45;2.38;;;;;;;;;;5060196;28;20095;-80
2022/11/27 14:48:55;;;;;;;4.32;2.03;;;;;;;;;;5052049;28;20454;-80
2022/11/27 14:51:24;;;;;;;5.30;2.85;;;;;;;;;;5055437;28;20033;-81
2022/11/27 14:53:55;;;;;;;2.33;2.08;;;;;;;;;;5062872;28;20036;-80
2022/11/27 14:56:21;;;;;;;2.03;1.00;;;;;;;;;;5060685;28;20033;-80